createdAt,value
2022-09-12T00:01:19.326Z,101104.69
2022-09-12T00:03:46.829Z,101111.50
2022-09-12T00:06:37.579Z,101110.97
2022-09-12T00:09:14.196Z,101106.53
2022-09-12T00:11:46.151Z,101111.69
2022-09-12T00:14:18.385Z,101111.25
2022-09-12T00:16:45.605Z,101104.94
2022-09-12T00:19:13.252Z,101100.72
2022-09-12T00:21:40.993Z,101105.94
2022-09-12T00:24:09.358Z,101100.78
2022-09-12T00:26:36.795Z,101099.97
2022-09-12T00:29:03.772Z,101101.31
2022-09-12T00:31:30.829Z,101101.63
2022-09-12T00:34:00.867Z,101097.81
2022-09-12T00:36:30.406Z,101095.19
2022-09-12T00:38:57.674Z,101095.72
2022-09-12T00:41:33.912Z,101095.34
2022-09-12T00:44:23.293Z,101087.38
2022-09-12T00:47:05.409Z,101095.94
2022-09-12T00:50:09.601Z,101090.59
2022-09-12T00:52:53.533Z,101088.09
2022-09-12T00:55:27.818Z,101093.09
2022-09-12T00:58:10.177Z,101097.41
2022-09-12T01:00:37.470Z,101086.09
2022-09-12T01:03:15.521Z,101087.38
2022-09-12T01:06:09.369Z,101098.25
2022-09-12T01:08:37.412Z,101096.47
2022-09-12T01:11:06.706Z,101093.09
2022-09-12T01:13:36.266Z,101088.59
2022-09-12T01:16:08.392Z,101097.03
2022-09-12T01:19:46.277Z,101093.69
2022-09-12T01:23:37.826Z,101093.34
2022-09-12T01:26:43.148Z,101094.78
2022-09-12T01:29:41.047Z,101094.53
2022-09-12T01:32:12.977Z,101099.78
2022-09-12T01:34:56.711Z,101105.16
2022-09-12T01:38:23.795Z,101096.19
2022-09-12T01:41:31.368Z,101095.25
2022-09-12T01:44:06.710Z,101089.16
2022-09-12T01:47:10.144Z,101094.50
2022-09-12T01:49:52.824Z,101094.59
2022-09-12T01:52:58.968Z,101093.63
2022-09-12T01:55:42.691Z,101090.94
2022-09-12T01:58:29.615Z,101082.59
2022-09-12T02:01:15.266Z,101075.78
2022-09-12T02:03:56.046Z,101075.84
2022-09-12T02:06:58.766Z,101083.06
2022-09-12T02:09:42.999Z,101083.09
2022-09-12T02:12:14.777Z,101095.25
2022-09-12T02:14:50.058Z,101085.72
2022-09-12T02:17:22.943Z,101090.97
2022-09-12T02:20:06.995Z,101088.94
2022-09-12T02:22:38.801Z,101090.25
2022-09-12T02:25:11.519Z,101095.03
2022-09-12T02:27:54.290Z,101088.22
2022-09-12T02:30:22.700Z,101092.84
2022-09-12T02:33:04.122Z,101090.13
2022-09-12T02:36:02.001Z,101087.38
2022-09-12T02:38:47.903Z,101088.72
2022-09-12T02:41:20.627Z,101082.56
2022-09-12T02:43:50.393Z,101083.66
2022-09-12T02:46:33.023Z,101083.28
2022-09-12T02:48:59.986Z,101084.00
2022-09-12T02:51:27.350Z,101083.69
2022-09-12T02:53:54.562Z,101085.00
2022-09-12T02:56:30.384Z,101087.50
2022-09-12T02:59:07.991Z,101091.97
2022-09-12T03:02:00.309Z,101087.03
2022-09-12T03:05:03.224Z,101087.56
2022-09-12T03:08:14.722Z,101089.06
2022-09-12T03:10:57.642Z,101087.25
2022-09-12T03:14:05.006Z,101086.53
2022-09-12T03:17:14.404Z,101091.47
2022-09-12T03:20:51.285Z,101087.16
2022-09-12T03:24:05.140Z,101068.31
2022-09-12T03:27:09.590Z,101080.91
2022-09-12T03:29:39.191Z,101077.63
2022-09-12T03:32:07.436Z,101079.50
2022-09-12T03:34:34.528Z,101079.28
2022-09-12T03:37:01.562Z,101077.25
2022-09-12T03:39:28.669Z,101084.16
2022-09-12T03:41:56.359Z,101084.31
2022-09-12T03:44:24.179Z,101092.84
2022-09-12T03:46:51.426Z,101088.06
2022-09-12T03:49:18.633Z,101090.59
2022-09-12T03:51:45.662Z,101088.88
2022-09-12T03:54:12.734Z,101094.84
2022-09-12T03:56:41.191Z,101094.75
2022-09-12T03:59:08.252Z,101089.50
2022-09-12T04:01:35.439Z,101093.06
2022-09-12T04:04:03.434Z,101092.72
2022-09-12T04:06:31.204Z,101090.94
2022-09-12T04:08:58.548Z,101096.63
2022-09-12T04:11:25.818Z,101093.69
2022-09-12T04:13:53.072Z,101095.78
2022-09-12T04:16:20.338Z,101092.44
2022-09-12T04:18:47.599Z,101091.22
2022-09-12T04:21:19.895Z,101096.84
2022-09-12T04:23:47.016Z,101091.59
2022-09-12T04:26:15.538Z,101094.50
2022-09-12T04:28:42.733Z,101091.53
2022-09-12T04:31:21.298Z,101095.84
2022-09-12T04:33:53.133Z,101087.97
2022-09-12T04:36:27.674Z,101088.19
2022-09-12T04:38:55.688Z,101097.84
2022-09-12T04:41:30.706Z,101093.06
2022-09-12T04:44:13.180Z,101088.31
2022-09-12T04:46:45.554Z,101096.31
2022-09-12T04:49:14.341Z,101104.22
2022-09-12T04:51:42.860Z,101095.34
2022-09-12T04:54:19.119Z,101096.72
2022-09-12T04:56:49.994Z,101095.00
2022-09-12T04:59:19.893Z,101088.81
2022-09-12T05:01:47.158Z,101091.38
2022-09-12T05:04:14.950Z,101093.53
2022-09-12T05:06:42.642Z,101090.75
2022-09-12T05:09:14.127Z,101094.25
2022-09-12T05:14:33.015Z,101101.03
2022-09-12T05:17:01.990Z,101097.81
2022-09-12T05:19:31.249Z,101106.22
2022-09-12T05:21:59.110Z,101105.69
2022-09-12T05:24:26.801Z,101105.56
2022-09-12T05:26:54.040Z,101100.31
2022-09-12T05:29:21.263Z,101105.47
2022-09-12T05:31:53.429Z,101114.97
2022-09-12T05:34:21.434Z,101115.94
2022-09-12T05:36:49.180Z,101118.78
2022-09-12T05:39:16.698Z,101115.25
2022-09-12T05:41:43.943Z,101117.81
2022-09-12T05:44:14.845Z,101119.19
2022-09-12T05:46:45.616Z,101117.91
2022-09-12T05:49:14.613Z,101124.94
2022-09-12T05:51:45.995Z,101130.81
2022-09-12T05:54:20.335Z,101127.81
2022-09-12T05:56:51.387Z,101129.16
2022-09-12T05:59:22.018Z,101134.25
2022-09-12T06:01:49.617Z,101130.16
2022-09-12T06:04:17.580Z,101135.75
2022-09-12T06:06:46.335Z,101132.88
2022-09-12T06:09:16.276Z,101135.22
2022-09-12T06:11:44.847Z,101136.00
2022-09-12T06:14:15.544Z,101139.13
2022-09-12T06:16:43.031Z,101136.81
2022-09-12T06:19:23.752Z,101136.38
2022-09-12T06:21:51.556Z,101144.06
2022-09-12T06:24:20.926Z,101147.25
2022-09-12T06:26:49.850Z,101147.72
2022-09-12T06:29:17.236Z,101150.28
2022-09-12T06:31:44.762Z,101156.16
2022-09-12T06:34:15.789Z,101153.78
2022-09-12T06:36:47.314Z,101157.59
2022-09-12T06:39:18.474Z,101153.06
2022-09-12T06:41:46.243Z,101163.50
2022-09-12T06:44:20.912Z,101161.13
2022-09-12T06:46:49.487Z,101162.31
2022-09-12T06:49:17.742Z,101157.16
2022-09-12T06:51:45.035Z,101161.13
2022-09-12T06:54:17.167Z,101164.81
2022-09-12T06:56:45.172Z,101163.09
2022-09-12T06:59:12.547Z,101164.34
2022-09-12T07:01:41.159Z,101160.28
2022-09-12T07:04:08.722Z,101158.63
2022-09-12T07:06:40.690Z,101158.81
2022-09-12T07:09:16.468Z,101157.81
2022-09-12T07:11:44.611Z,101161.78
2022-09-12T07:14:14.488Z,101154.41
2022-09-12T07:16:42.282Z,101157.25
2022-09-12T07:19:10.218Z,101157.00
2022-09-12T07:21:39.973Z,101152.50
2022-09-12T07:24:10.182Z,101148.41
2022-09-12T07:26:40.529Z,101149.44
2022-09-12T07:29:35.438Z,101159.06
2022-09-12T07:32:01.593Z,101151.13
2022-09-12T07:34:28.631Z,101145.72
2022-09-12T07:36:55.589Z,101150.84
2022-09-12T07:39:22.527Z,101140.31
2022-09-12T07:41:49.560Z,101145.28
2022-09-12T07:44:16.773Z,101146.38
2022-09-12T07:46:43.801Z,101149.59
2022-09-12T07:49:13.227Z,101152.09
2022-09-12T07:51:41.152Z,101151.56
2022-09-12T07:54:09.596Z,101149.16
2022-09-12T07:56:39.220Z,101150.50
2022-09-12T07:59:08.210Z,101152.19
2022-09-12T08:01:35.436Z,101147.94
2022-09-12T08:04:04.881Z,101158.94
2022-09-12T08:06:33.794Z,101160.44
2022-09-12T08:09:01.876Z,101156.97
2022-09-12T08:11:30.258Z,101149.53
2022-09-12T08:13:58.542Z,101155.53
2022-09-12T08:16:30.240Z,101158.78
2022-09-12T08:18:59.817Z,101158.59
2022-09-12T08:21:32.734Z,101148.72
2022-09-12T08:24:06.137Z,101151.50
2022-09-12T08:26:34.721Z,101150.22
2022-09-12T08:29:03.788Z,101150.31
2022-09-12T08:31:36.362Z,101149.16
2022-09-12T08:34:07.119Z,101154.38
2022-09-12T08:36:35.325Z,101158.81
2022-09-12T08:39:07.092Z,101157.94
2022-09-12T08:42:02.865Z,101166.31
2022-09-12T08:45:15.882Z,101166.72
2022-09-12T08:47:46.866Z,101160.22
2022-09-12T08:50:22.265Z,101160.47
2022-09-12T08:53:10.414Z,101161.94
2022-09-12T08:55:46.666Z,101159.03
2022-09-12T08:58:25.230Z,101156.22
2022-09-12T09:01:29.998Z,101160.59
2022-09-12T09:04:18.471Z,101149.69
2022-09-12T09:07:43.709Z,101152.75
2022-09-12T09:10:53.599Z,101145.63
2022-09-12T09:13:56.577Z,101151.53
2022-09-12T09:16:33.251Z,101142.16
2022-09-12T09:19:12.768Z,101147.72
2022-09-12T09:22:06.272Z,101152.00
2022-09-12T09:24:48.173Z,101138.91
2022-09-12T09:27:41.627Z,101144.66
2022-09-12T09:30:21.305Z,101145.75
2022-09-12T09:32:57.381Z,101139.63
2022-09-12T09:35:48.788Z,101137.91
2022-09-12T09:38:46.088Z,101141.09
2022-09-12T09:41:40.868Z,101141.03
2022-09-12T09:46:40.024Z,101135.78
2022-09-12T09:49:12.146Z,101133.44
2022-09-12T09:51:42.590Z,101131.28
2022-09-12T09:54:34.055Z,101135.91
2022-09-12T09:57:01.251Z,101139.41
2022-09-12T09:59:33.708Z,101130.97
2022-09-12T10:02:14.972Z,101124.75
2022-09-12T10:04:56.248Z,101135.38
2022-09-12T10:07:24.675Z,101124.50
2022-09-12T10:10:25.266Z,101122.13
2022-09-12T10:13:30.882Z,101131.38
2022-09-12T10:16:05.321Z,101121.38
2022-09-12T10:18:42.678Z,101124.25
2022-09-12T10:21:38.018Z,101117.56
2022-09-12T10:24:30.889Z,101119.81
2022-09-12T10:27:35.681Z,101111.56
2022-09-12T10:30:29.235Z,101117.78
2022-09-12T10:33:11.082Z,101113.84
2022-09-12T10:35:49.736Z,101111.19
2022-09-12T10:38:33.027Z,101109.53
2022-09-12T10:41:06.649Z,101103.69
2022-09-12T10:43:33.523Z,101104.06
2022-09-12T10:46:28.768Z,101112.94
2022-09-12T10:49:38.200Z,101100.00
2022-09-12T10:52:27.318Z,101102.94
2022-09-12T10:54:55.036Z,101097.19
2022-09-12T10:57:51.212Z,101093.31
2022-09-12T11:00:27.481Z,101091.44
2022-09-12T11:03:14.666Z,101090.91
2022-09-12T11:05:53.343Z,101085.94
2022-09-12T11:08:51.611Z,101098.00
2022-09-12T11:11:58.980Z,101098.63
2022-09-12T11:15:11.049Z,101087.97
2022-09-12T11:18:37.739Z,101086.00
2022-09-12T11:21:34.347Z,101097.22
2022-09-12T11:24:40.655Z,101089.41
2022-09-12T11:27:23.698Z,101089.63
2022-09-12T11:30:10.723Z,101092.31
2022-09-12T11:32:49.892Z,101084.75
2022-09-12T11:35:33.711Z,101093.81
2022-09-12T11:38:58.817Z,101082.91
2022-09-12T11:41:39.838Z,101081.34
2022-09-12T11:44:24.684Z,101084.66
2022-09-12T11:46:52.337Z,101075.72
2022-09-12T11:49:47.284Z,101076.78
2022-09-12T11:52:33.357Z,101082.59
2022-09-12T11:55:22.844Z,101081.53
2022-09-12T11:58:01.658Z,101072.84
2022-09-12T12:00:47.016Z,101064.78
2022-09-12T12:03:41.259Z,101058.91
2022-09-12T12:06:56.190Z,101061.38
2022-09-12T12:09:23.580Z,101064.41
2022-09-12T12:11:57.581Z,101047.91
2022-09-12T12:14:46.095Z,101052.22
2022-09-12T12:17:18.787Z,101045.28
2022-09-12T12:19:56.436Z,101049.38
2022-09-12T12:22:25.437Z,101049.38
2022-09-12T12:25:38.722Z,101041.75
2022-09-12T12:28:06.453Z,101035.22
2022-09-12T12:30:34.131Z,101025.72
2022-09-12T12:33:22.632Z,101027.81
2022-09-12T12:36:01.664Z,101032.94
2022-09-12T12:38:33.833Z,101031.59
2022-09-12T12:41:19.194Z,101027.25
2022-09-12T12:43:56.340Z,101027.00
2022-09-12T12:46:27.094Z,101034.56
2022-09-12T12:49:27.696Z,101030.81
2022-09-12T12:51:54.487Z,101040.69
2022-09-12T12:54:41.083Z,101039.75
2022-09-12T12:57:46.100Z,101034.56
2022-09-12T13:00:39.826Z,101034.03
2022-09-12T13:03:07.117Z,101020.22
2022-09-12T13:06:00.468Z,101030.25
2022-09-12T13:08:36.467Z,101028.28
2022-09-12T13:11:09.650Z,101028.84
2022-09-12T13:14:46.894Z,101026.59
2022-09-12T13:17:35.625Z,101017.50
2022-09-12T13:20:27.884Z,101017.09
2022-09-12T13:22:59.196Z,101020.63
2022-09-12T13:25:35.279Z,101016.63
2022-09-12T13:28:11.394Z,101009.94
2022-09-12T13:30:44.183Z,101015.09
2022-09-12T13:33:39.511Z,101016.22
2022-09-12T13:36:23.540Z,101006.38
2022-09-12T13:39:22.182Z,100997.94
2022-09-12T13:42:49.277Z,100991.00
2022-09-12T13:45:27.698Z,100994.81
2022-09-12T13:50:46.257Z,100995.41
2022-09-12T13:53:25.871Z,100990.69
2022-09-12T13:56:01.250Z,100995.00
2022-09-12T13:58:36.819Z,100993.41
2022-09-12T14:01:15.998Z,100989.91
2022-09-12T14:04:12.569Z,100989.31
2022-09-12T14:06:50.673Z,100988.06
2022-09-12T14:09:38.544Z,100989.13
2022-09-12T14:12:25.643Z,100984.19
2022-09-12T14:14:53.591Z,100981.47
2022-09-12T14:17:39.670Z,100977.94
2022-09-12T14:20:18.507Z,100980.94
2022-09-12T14:22:50.938Z,100984.09
2022-09-12T14:25:29.979Z,100980.16
2022-09-12T14:27:59.029Z,100977.31
2022-09-12T14:30:36.703Z,100979.34
2022-09-12T14:33:12.657Z,100977.38
2022-09-12T14:36:32.661Z,100980.91
2022-09-12T14:39:14.311Z,100974.28
2022-09-12T14:41:43.037Z,100967.50
2022-09-12T14:44:22.913Z,100969.75
2022-09-12T14:46:50.363Z,100973.47
2022-09-12T14:49:28.759Z,100971.00
2022-09-12T14:52:00.850Z,100970.63
2022-09-12T14:54:31.090Z,100959.50
2022-09-12T14:57:19.220Z,100958.69
2022-09-12T14:59:46.275Z,100963.63
2022-09-12T15:02:26.087Z,100953.25
2022-09-12T15:05:12.790Z,100961.47
2022-09-12T15:07:47.097Z,100949.63
2022-09-12T15:10:37.609Z,100950.28
2022-09-12T15:13:11.076Z,100945.44
2022-09-12T15:15:41.339Z,100949.56
2022-09-12T15:18:10.647Z,100950.88
2022-09-12T15:20:41.247Z,100948.63
2022-09-12T15:23:51.140Z,100944.59
2022-09-12T15:26:26.389Z,100958.63
2022-09-12T15:28:53.958Z,100948.03
2022-09-12T15:31:32.586Z,100951.13
2022-09-12T15:34:02.521Z,100948.66
2022-09-12T15:36:29.799Z,100944.59
2022-09-12T15:38:57.504Z,100945.97
2022-09-12T15:41:36.948Z,100948.13
2022-09-12T15:44:13.250Z,100939.06
2022-09-12T15:46:40.581Z,100942.28
2022-09-12T15:49:07.747Z,100939.47
2022-09-12T15:51:34.735Z,100940.72
2022-09-12T15:54:04.375Z,100936.44
2022-09-12T15:56:31.401Z,100936.59
2022-09-12T15:59:00.052Z,100942.31
2022-09-12T16:01:28.886Z,100930.41
2022-09-12T16:03:58.522Z,100940.38
2022-09-12T16:06:25.919Z,100932.09
2022-09-12T16:08:52.945Z,100932.19
2022-09-12T16:11:26.633Z,100926.94
2022-09-12T16:13:55.971Z,100924.28
2022-09-12T16:16:23.513Z,100922.66
2022-09-12T16:18:50.658Z,100923.28
2022-09-12T16:21:18.122Z,100923.22
2022-09-12T16:23:47.082Z,100922.25
2022-09-12T16:26:14.926Z,100920.78
2022-09-12T16:28:42.096Z,100922.13
2022-09-12T16:31:13.580Z,100911.53
2022-09-12T16:33:40.893Z,100913.50
2022-09-12T16:36:13.069Z,100914.88
2022-09-12T16:38:53.683Z,100906.91
2022-09-12T16:41:27.296Z,100912.81
2022-09-12T16:43:55.171Z,100911.84
2022-09-12T16:46:30.658Z,100912.47
2022-09-12T16:48:59.013Z,100916.16
2022-09-12T16:51:32.278Z,100906.16
2022-09-12T16:53:59.350Z,100898.56
2022-09-12T16:56:26.433Z,100904.84
2022-09-12T16:58:53.969Z,100901.19
2022-09-12T17:01:26.270Z,100897.38
2022-09-12T17:03:58.369Z,100899.53
2022-09-12T17:06:26.892Z,100891.28
2022-09-12T17:09:00.718Z,100887.41
2022-09-12T17:11:36.351Z,100880.72
2022-09-12T17:14:07.616Z,100884.63
2022-09-12T17:16:41.931Z,100872.38
2022-09-12T17:19:30.171Z,100877.34
2022-09-12T17:21:58.591Z,100873.28
2022-09-12T17:24:25.806Z,100878.78
2022-09-12T17:26:53.663Z,100877.63
2022-09-12T17:29:21.025Z,100878.75
2022-09-12T17:31:48.809Z,100880.78
2022-09-12T17:34:16.337Z,100880.09
2022-09-12T17:36:45.360Z,100877.94
2022-09-12T17:39:13.843Z,100876.63
2022-09-12T17:41:42.590Z,100879.41
2022-09-12T17:44:13.825Z,100872.72
2022-09-12T17:46:41.591Z,100872.00
2022-09-12T17:49:15.458Z,100880.59
2022-09-12T17:51:43.925Z,100874.34
2022-09-12T17:54:18.255Z,100877.94
2022-09-12T17:56:48.984Z,100875.16
2022-09-12T17:59:23.950Z,100875.13
2022-09-12T18:02:09.925Z,100883.19
2022-09-12T18:04:37.401Z,100883.63
2022-09-12T18:07:04.910Z,100886.59
2022-09-12T18:09:32.107Z,100892.28
2022-09-12T18:11:59.587Z,100892.13
2022-09-12T18:14:28.236Z,100888.59
2022-09-12T18:16:57.137Z,100889.06
2022-09-12T18:19:24.723Z,100888.78
2022-09-12T18:21:51.660Z,100895.28
2022-09-12T18:24:18.766Z,100892.28
2022-09-12T18:26:46.018Z,100897.53
2022-09-12T18:29:16.864Z,100881.63
2022-09-12T18:31:45.987Z,100883.72
2022-09-12T18:34:14.036Z,100885.44
2022-09-12T18:36:43.417Z,100877.16
2022-09-12T18:39:11.437Z,100881.94
2022-09-12T18:41:39.069Z,100880.69
2022-09-12T18:44:07.599Z,100877.31
2022-09-12T18:46:35.691Z,100883.16
2022-09-12T18:49:03.545Z,100879.34
2022-09-12T18:51:34.870Z,100879.41
2022-09-12T18:54:11.357Z,100875.44
2022-09-12T18:56:39.408Z,100870.91
2022-09-12T18:59:07.640Z,100871.53
2022-09-12T19:01:38.197Z,100869.69
2022-09-12T19:04:08.010Z,100871.59
2022-09-12T19:06:42.774Z,100861.47
2022-09-12T19:09:12.924Z,100858.34
2022-09-12T19:11:49.548Z,100856.78
2022-09-12T19:14:23.240Z,100854.66
2022-09-12T19:16:52.052Z,100841.53
2022-09-12T19:19:21.182Z,100844.56
2022-09-12T19:21:48.550Z,100857.72
2022-09-12T19:24:16.980Z,100844.97
2022-09-12T19:26:44.716Z,100847.53
2022-09-12T19:29:13.757Z,100845.84
2022-09-12T19:31:41.023Z,100846.03
2022-09-12T19:34:08.293Z,100847.31
2022-09-12T19:36:51.420Z,100844.44
2022-09-12T19:39:19.842Z,100841.94
2022-09-12T19:41:48.157Z,100847.09
2022-09-12T19:44:15.233Z,100842.94
2022-09-12T19:46:42.590Z,100841.44
2022-09-12T19:49:12.747Z,100846.16
2022-09-12T19:51:40.287Z,100835.75
2022-09-12T19:54:07.802Z,100832.03
2022-09-12T19:56:34.899Z,100835.03
2022-09-12T19:59:01.882Z,100834.66
2022-09-12T20:01:29.162Z,100834.81
2022-09-12T20:03:58.340Z,100831.06
2022-09-12T20:06:27.261Z,100828.09
2022-09-12T20:08:55.318Z,100821.03
2022-09-12T20:11:24.012Z,100820.94
2022-09-12T20:13:51.646Z,100824.66
2022-09-12T20:16:26.453Z,100824.50
2022-09-12T20:19:03.767Z,100808.25
2022-09-12T20:21:34.081Z,100809.06
2022-09-12T20:24:15.724Z,100810.44
2022-09-12T20:26:42.924Z,100810.47
2022-09-12T20:29:10.779Z,100811.88
2022-09-12T20:31:41.765Z,100813.94
2022-09-12T20:34:17.729Z,100805.75
2022-09-12T20:36:45.879Z,100807.66
2022-09-12T20:39:22.533Z,100805.84
2022-09-12T20:41:50.019Z,100809.88
2022-09-12T20:44:17.205Z,100804.09
2022-09-12T20:46:44.289Z,100803.97
2022-09-12T20:49:11.431Z,100800.75
2022-09-12T20:51:38.931Z,100806.28
2022-09-12T20:54:07.304Z,100809.34
2022-09-12T20:56:37.137Z,100806.50
2022-09-12T20:59:05.101Z,100792.78
2022-09-12T21:01:32.675Z,100797.53
2022-09-12T21:04:01.093Z,100790.16
2022-09-12T21:06:28.395Z,100792.78
2022-09-12T21:09:00.599Z,100791.69
2022-09-12T21:11:29.003Z,100786.31
2022-09-12T21:13:56.315Z,100788.22
2022-09-12T21:16:23.973Z,100791.94
2022-09-12T21:18:58.055Z,100797.38
2022-09-12T21:21:26.063Z,100786.88
2022-09-12T21:23:55.193Z,100788.09
2022-09-12T21:26:22.134Z,100788.47
2022-09-12T21:28:49.097Z,100784.25
2022-09-12T21:31:16.300Z,100776.50
2022-09-12T21:33:43.314Z,100777.84
2022-09-12T21:36:10.569Z,100781.31
2022-09-12T21:38:37.570Z,100776.97
2022-09-12T21:41:16.299Z,100776.47
2022-09-12T21:43:43.943Z,100771.38
2022-09-12T21:46:11.900Z,100776.44
2022-09-12T21:48:38.947Z,100771.44
2022-09-12T21:51:06.864Z,100777.56
2022-09-12T21:53:35.415Z,100769.81
2022-09-12T21:56:07.147Z,100774.56
2022-09-12T21:58:35.150Z,100765.16
2022-09-12T22:01:04.528Z,100760.88
2022-09-12T22:03:32.018Z,100765.00
2022-09-12T22:06:01.874Z,100761.00
2022-09-12T22:08:32.528Z,100752.84
2022-09-12T22:11:03.457Z,100751.88
2022-09-12T22:13:32.019Z,100753.53
2022-09-12T22:16:03.134Z,100751.75
2022-09-12T22:18:34.564Z,100744.25
2022-09-12T22:21:14.145Z,100749.50
2022-09-12T22:24:00.430Z,100745.47
2022-09-12T22:26:28.105Z,100738.38
2022-09-12T22:28:55.443Z,100727.88
2022-09-12T22:31:23.100Z,100728.97
2022-09-12T22:33:51.418Z,100727.88
2022-09-12T22:36:18.370Z,100713.41
2022-09-12T22:38:45.399Z,100722.53
2022-09-12T22:41:13.120Z,100712.88
2022-09-12T22:43:40.315Z,100707.00
2022-09-12T22:46:14.786Z,100704.81
2022-09-12T22:48:42.728Z,100707.34
2022-09-12T22:51:10.718Z,100701.28
2022-09-12T22:53:38.175Z,100694.88
2022-09-12T22:56:07.015Z,100691.69
2022-09-12T22:58:39.147Z,100686.31
2022-09-12T23:01:07.197Z,100681.66
2022-09-12T23:03:34.557Z,100672.50
2022-09-12T23:06:01.925Z,100675.28
2022-09-12T23:08:29.616Z,100671.00
2022-09-12T23:11:19.627Z,100667.25
2022-09-12T23:13:49.595Z,100668.91
2022-09-12T23:16:21.585Z,100656.72
2022-09-12T23:18:49.301Z,100655.59
2022-09-12T23:21:21.187Z,100656.41
2022-09-12T23:23:48.496Z,100661.13
2022-09-12T23:26:28.130Z,100652.31
2022-09-12T23:28:59.034Z,100655.88
2022-09-12T23:31:30.266Z,100656.09
2022-09-12T23:34:02.110Z,100660.53
2022-09-12T23:36:29.680Z,100657.31
2022-09-12T23:38:58.133Z,100652.97
2022-09-12T23:41:25.467Z,100655.41
2022-09-12T23:43:52.638Z,100652.78
2022-09-12T23:46:20.785Z,100653.28
2022-09-12T23:48:48.312Z,100645.41
2022-09-12T23:51:15.941Z,100644.66
2022-09-12T23:53:42.951Z,100649.38
2022-09-12T23:56:10.023Z,100637.97
2022-09-12T23:58:37.126Z,100641.44
